Carnarvon, Iowa
Current Conditions -  °F | °C
As of 7:35 AM on Monday 24 Nov 2014 (Local Time) from KSLB Reporting Station
Overcast Overcast  
Wind Chill:   Ceiling: 1800
Heat Index: 21°   Visibility: 10mi
Dew Point: 14°   Wind: 28mph
Humidity: 74%   Direction: 310°NW
Pressure: 29.53"   Gusts: 33mph
Location:  42.3412°N, 95.0615°W
Report Text: KSLB 241335Z AUTO 31024G29KT 10SM OVC018 M06/M10 A2953 RMK AO2
Loading
Personal Weather Stations






























Interactive Weather Map New forecast layout! Learn more

10-Day Weather Forecast

Advertisements
Track Severe Weather on mobile